Latest Weather Observations for Launceston

IDT60801

Issued at 10:05 pm EST Tuesday 2 September 2014 (issued every 30 minutes, with the page automatically refreshed every 10 minutes)

About weather observations | Map of weather stations | Latest weather observations for TAS | Other Formats
Station Details ID: 091237 Name: LAUNCESTON (TI TREE BEND) Lat: -41.42 Lon: 147.12 Height: 5.0 m
Data from the previous 72 hours. | See also: Recent months at Launceston
Date/Time
EST
Temp
°C
App
Temp
°C
Dew
Point
Rel
Hum
%
Delta-T
°C
Wind Press
QNH
hPa
Press
MSL
hPa
Rain
since 9 am
mm
Dir
 
Spd
km/h
Gust
km/h
Spd
kts
Gust
kts
02/10:00pm 7.7 3.9 3.7 76 1.7 SE 13 20 7 11 - - 0.2
02/09:30pm 7.8 4.7 3.8 76 1.7 SSE 9 13 5 7 - - 0.2
02/09:00pm 8.2 5.5 3.5 72 2.0 SE 7 13 4 7 - - 0.2
02/08:30pm 8.7 5.8 2.5 65 2.6 SSE 7 13 4 7 - - 0.2
02/08:00pm 8.8 5.9 2.6 65 2.6 ESE 7 13 4 7 - - 0.2
02/07:30pm 10.0 5.5 2.1 58 3.3 S 15 24 8 13 - - 0.2
02/07:00pm 10.8 5.5 1.9 54 3.8 S 19 26 10 14 - - 0.2
02/06:30pm 10.9 6.7 1.4 52 4.0 S 13 22 7 12 - - 0.2
02/06:00pm 10.4 7.9 1.5 54 3.7 SSW 4 6 2 3 - - 0.2
02/05:30pm 11.9 8.3 0.7 46 4.7 S 9 11 5 6 - - 0.2
02/05:00pm 12.5 8.9 0.3 43 5.1 S 9 13 5 7 - - 0.2
02/04:30pm 13.0 8.9 -0.3 40 5.5 S 11 19 6 10 - - 0.2
02/04:00pm 13.7 10.4 0.0 39 5.7 SSW 7 11 4 6 - - 0.2
02/03:30pm 13.6 10.4 0.9 42 5.4 E 7 9 4 5 - - 0.2
02/03:00pm 13.7 10.3 1.7 44 5.2 E 9 15 5 8 - - 0.2
02/02:30pm 13.9 10.0 0.9 41 5.5 SSE 11 17 6 9 - - 0.2
02/02:00pm 13.8 9.7 -0.3 38 5.8 SSE 11 22 6 12 - - 0.2
02/01:30pm 13.4 9.6 -0.6 38 5.7 SSE 9 17 5 9 - - 0.2
02/01:00pm 13.1 9.2 1.1 44 5.1 SE 11 20 6 11 - - 0.2
02/12:30pm 13.1 9.2 3.5 52 4.3 SE 13 20 7 11 - - 0.0
02/12:00pm 12.1 8.1 2.8 53 4.1 ESE 13 26 7 14 - - 0.0
02/11:30am 12.1 7.3 2.8 53 4.1 SE 17 33 9 18 - - 0.0
02/11:00am 11.3 5.3 1.3 50 4.2 SSE 22 28 12 15 - - 0.0
02/10:30am 11.4 6.3 3.2 57 3.6 SSE 19 30 10 16 - - 0.0
02/10:00am 10.7 5.5 3.5 61 3.2 SSE 20 30 11 16 - - 0.0
02/09:30am 10.0 5.3 3.3 63 2.9 SE 17 30 9 16 - - 0.0
02/09:00am 9.3 4.8 4.1 70 2.3 SSE 17 26 9 14 - - 11.6
02/08:30am 8.6 4.9 4.2 74 1.9 SSE 13 20 7 11 - - 11.6
02/08:00am 7.6 3.9 4.2 79 1.5 SSE 13 20 7 11 - - 11.6
02/07:30am 6.9 3.5 3.9 81 1.3 SSE 11 17 6 9 - - 11.6
02/07:00am 6.1 3.4 3.8 85 1.0 SSE 7 11 4 6 - - 11.6
02/06:30am 5.8 3.1 3.5 85 1.0 SSE 7 9 4 5 - - 11.6
02/06:00am 6.2 3.1 3.7 84 1.1 SSE 9 13 5 7 - - 11.6
02/05:30am 6.1 3.4 3.9 86 0.9 SSE 7 11 4 6 - - 11.6
02/05:00am 6.5 3.1 4.0 84 1.1 SSE 11 15 6 8 - - 11.6
02/04:30am 6.5 2.8 4.2 85 1.0 SSE 13 17 7 9 - - 11.6
02/04:00am 6.9 3.5 4.2 83 1.2 SSE 11 17 6 9 - - 11.6
02/03:30am 7.2 3.1 4.3 82 1.3 SSE 15 20 8 11 - - 11.6
02/03:00am 7.1 3.0 4.4 83 1.2 SSE 15 20 8 11 - - 11.6
02/02:30am 7.1 3.4 4.6 84 1.1 SSE 13 20 7 11 - - 11.6
02/02:00am 7.4 3.7 4.5 82 1.3 SSE 13 20 7 11 - - 11.6
02/01:30am 7.8 3.4 4.6 80 1.4 SSE 17 26 9 14 - - 11.6
02/01:00am 8.0 3.2 4.8 80 1.4 SSE 19 30 10 16 - - 11.6
02/12:30am 8.1 3.7 5.0 81 1.4 SSE 17 24 9 13 - - 11.6
02/12:00am 8.3 4.3 5.1 80 1.4 SSE 15 22 8 12 - - 11.6
 
Date/Time
EST
Temp
°C
App
Temp
°C
Dew
Point
Rel
Hum
%
Delta-T
°C
Wind Press
QNH
hPa
Press
MSL
hPa
Rain
since 9 am
mm
Dir
 
Spd
km/h
Gust
km/h
Spd
kts
Gust
kts
01/11:30pm 8.6 4.7 5.4 80 1.4 SSE 15 20 8 11 - - 11.6
01/11:00pm 8.8 4.9 5.5 80 1.5 SSE 15 24 8 13 - - 11.6
01/10:30pm 9.4 4.9 5.9 79 1.6 SE 19 32 10 17 - - 11.6
01/10:00pm 9.7 5.6 6.1 78 1.7 SE 17 28 9 15 - - 11.6
01/09:30pm 9.5 6.3 6.8 83 1.3 SSE 13 20 7 11 - - 11.6
01/09:00pm 9.6 6.9 7.4 86 1.0 SSE 11 19 6 10 - - 11.6
01/08:30pm 9.8 7.2 7.6 86 1.0 SSE 11 19 6 10 - - 11.6
01/08:00pm 9.5 6.2 7.9 90 0.8 SE 15 24 8 13 - - 11.6
01/07:30pm 9.8 4.9 8.4 91 0.7 SE 24 50 13 27 - - 9.6
01/07:25pm 10.3 4.5 7.9 85 1.2 ESE 28 50 15 27 - - 8.2
01/07:00pm 11.6 11.6 11.0 96 0.3 S 2 6 1 3 - - 8.2
01/06:30pm 11.6 11.6 11.0 96 0.3 W 2 4 1 2 - - 8.2
01/06:00pm 11.7 11.6 10.9 95 0.4 NW 2 4 1 2 - - 8.2
01/05:30pm 11.9 11.5 11.0 94 0.5 NW 4 4 2 2 - - 8.2
01/05:00pm 12.2 11.2 11.1 93 0.6 N 7 11 4 6 - - 8.2
01/04:30pm 12.3 10.5 11.0 92 0.7 NNW 11 17 6 9 - - 8.2
01/04:00pm 12.4 9.9 11.1 92 0.7 NNW 15 22 8 12 - - 8.2
01/03:30pm 12.4 10.0 11.3 93 0.6 NNW 15 24 8 13 - - 8.2
01/03:00pm 12.3 9.1 11.2 93 0.6 NNW 19 28 10 15 - - 8.0
01/02:30pm 12.2 9.4 11.3 94 0.5 N 17 30 9 16 - - 7.8
01/02:00pm 12.4 7.8 11.1 92 0.7 NNW 26 39 14 21 - - 6.6
01/01:30pm 12.6 8.3 10.8 89 0.9 N 24 35 13 19 - - 5.4
01/01:00pm 12.9 9.5 11.1 89 0.9 N 20 33 11 18 - - 5.0
01/12:30pm 12.8 8.9 10.9 88 1.0 N 22 37 12 20 - - 4.8
01/12:00pm 12.6 10.6 11.5 93 0.6 NNW 13 19 7 10 - - 4.0
01/11:30am 12.6 10.2 11.5 93 0.6 N 15 20 8 11 - - 3.0
01/11:00am 12.7 9.9 11.4 92 0.7 N 17 26 9 14 - - 2.0
01/10:30am 13.0 10.2 11.2 89 0.9 NNW 17 28 9 15 - - 1.2
01/10:00am 13.2 11.5 11.1 87 1.1 NNW 11 19 6 10 - - 0.4
01/09:30am 13.6 12.3 11.1 85 1.3 NW 9 15 5 8 - - 0.2
01/09:00am 12.8 11.7 10.7 87 1.1 N 7 9 4 5 - - 0.2
01/08:30am 12.9 11.8 10.6 86 1.2 NNW 7 17 4 9 - - 0.0
01/08:00am 12.6 11.1 10.5 87 1.1 NNW 9 15 5 8 - - 0.0
01/07:30am 13.3 11.1 9.5 78 1.9 WNW 11 17 6 9 - - 0.0
01/07:00am 13.8 10.8 9.3 74 2.3 NW 15 28 8 15 - - 0.0
01/06:30am 12.0 11.2 9.6 85 1.2 WNW 4 6 2 3 - - 0.0
01/06:00am 12.1 10.9 9.7 85 1.2 NNW 6 9 3 5 - - 0.0
01/05:30am 12.1 10.3 9.5 84 1.3 NNW 9 15 5 8 - - 0.0
01/05:00am 12.9 11.0 9.2 78 1.9 NW 9 15 5 8 - - 0.0
01/04:30am 12.0 10.0 8.8 81 1.6 WNW 9 13 5 7 - - 0.0
01/04:00am 13.1 10.4 9.0 76 2.1 NW 13 20 7 11 - - 0.0
01/03:30am 13.4 11.0 8.7 73 2.4 WNW 11 20 6 11 - - 0.0
01/03:00am 12.9 10.6 9.0 77 2.0 NW 11 19 6 10 - - 0.0
01/02:30am 12.8 10.6 9.3 79 1.8 WNW 11 15 6 8 - - 0.0
01/02:00am 12.1 10.2 8.9 81 1.6 NW 9 13 5 7 - - 0.0
01/01:30am 11.6 9.4 9.2 85 1.2 NNW 11 19 6 10 - - 0.0
01/01:00am 11.3 9.3 8.7 84 1.3 NNW 9 11 5 6 - - 0.0
01/12:30am 11.3 9.5 8.0 80 1.6 NW 7 11 4 6 - - 0.0
01/12:00am 13.1 9.9 8.6 74 2.2 NW 15 22 8 12 - - 0.0
 
Date/Time
EST
Temp
°C
App
Temp
°C
Dew
Point
Rel
Hum
%
Delta-T
°C
Wind Press
QNH
hPa
Press
MSL
hPa
Rain
since 9 am
mm
Dir
 
Spd
km/h
Gust
km/h
Spd
kts
Gust
kts
31/11:30pm 12.6 9.8 8.7 77 1.9 NW 13 19 7 10 - - 0.0
31/11:00pm 12.2 10.2 8.7 79 1.7 NW 9 15 5 8 - - 0.0
31/10:30pm 11.7 9.8 9.1 84 1.3 NNW 9 15 5 8 - - 0.0
31/10:00pm 10.7 9.4 9.3 91 0.7 NNW 6 7 3 4 - - 0.0
31/09:30pm 10.8 9.4 9.4 91 0.7 NNW 7 9 4 5 - - 0.0
31/09:00pm 10.9 10.1 9.5 91 0.7 N 4 6 2 3 - - 0.0
31/08:30pm 11.4 10.6 9.5 88 1.0 NNW 4 6 2 3 - - 0.0
31/08:00pm 11.8 11.0 9.5 86 1.2 N 4 7 2 4 - - 0.0
31/07:30pm 12.9 10.8 9.7 81 1.6 WNW 11 17 6 9 - - 0.0
31/07:00pm 12.7 11.0 9.9 83 1.4 NW 9 13 5 7 - - 0.0
31/06:30pm 12.5 11.0 9.3 81 1.6 NNW 7 9 4 5 - - 0.0
31/06:00pm 13.6 11.8 9.6 77 2.0 WNW 9 13 5 7 - - 0.0
31/05:30pm 13.7 12.3 9.7 77 2.1 NW 7 11 4 6 - - 0.0
31/05:00pm 14.5 12.8 9.9 74 2.4 NNW 9 15 5 8 - - 0.0
31/04:30pm 14.9 13.2 9.7 71 2.7 NNW 9 17 5 9 - - 0.0
31/04:00pm 15.6 13.6 10.2 70 2.8 NNW 11 17 6 9 - - 0.0
31/03:30pm 16.1 15.1 11.1 72 2.7 NW 7 11 4 6 - - 0.0
31/03:00pm 15.7 14.2 10.7 72 2.7 NW 9 13 5 7 - - 0.0
31/02:30pm 15.5 14.0 10.7 73 2.5 NW 9 13 5 7 - - 0.0
31/02:00pm 15.3 13.8 10.7 74 2.4 NW 9 15 5 8 - - 0.0
31/01:30pm 15.2 14.2 11.0 76 2.2 WNW 7 13 4 7 - - 0.0
31/01:00pm 14.9 13.8 10.7 76 2.2 NW 7 11 4 6 - - 0.0
31/12:30pm 14.4 13.0 10.8 79 1.9 NW 9 13 5 7 - - 0.0
31/12:00pm 14.2 12.7 10.6 79 1.9 NW 9 15 5 8 - - 0.0
31/11:30am 13.6 12.5 10.6 82 1.6 NW 7 11 4 6 - - 0.0
31/11:00am 11.9 11.2 10.1 89 0.9 NNW 4 6 2 3 - - 0.0
31/10:30am 10.2 9.1 8.6 90 0.8 NNW 4 6 2 3 - - 0.0
31/10:00am 9.7 9.2 8.0 89 0.8 CALM 0 4 0 2 - - 0.0
31/09:30am 9.0 8.4 7.3 89 0.8 CALM 0 0 0 0 - - 0.0
31/09:00am 8.4 7.8 7.2 92 0.6 CALM 0 0 0 0 - - 0.0
31/08:30am 7.8 7.1 6.9 94 0.4 CALM 0 0 0 0 - - 0.0
31/08:00am 7.2 6.4 6.3 94 0.4 CALM 0 2 0 1 - - 0.0
31/07:30am 6.8 5.1 5.9 94 0.4 NNW 4 4 2 2 - - 0.0
31/07:00am 6.2 5.2 5.5 95 0.3 CALM 0 0 0 0 - - 0.0
31/06:30am 5.9 4.4 5.0 94 0.4 ENE 2 6 1 3 - - 0.0
31/06:00am 6.0 4.9 5.3 95 0.3 CALM 0 0 0 0 - - 0.0
31/05:30am 5.3 4.1 4.6 95 0.3 CALM 0 0 0 0 - - 0.0
31/05:00am 4.9 3.2 4.2 95 0.3 SE 2 4 1 2 - - 0.0
31/04:30am 4.6 2.5 4.0 96 0.3 SE 4 6 2 3 - - 0.0
31/04:00am 4.8 3.5 4.2 96 0.3 CALM 0 0 0 0 - - 0.0
31/03:30am 4.7 - - - - CALM 0 0 0 0 - - 0.0
31/03:00am 4.4 - - - - CALM 0 0 0 0 - - 0.0
31/02:30am 3.5 - - - - CALM 0 2 0 1 - - 0.0
31/02:00am 4.3 - - - - N 4 7 2 4 - - 0.0
31/01:30am 4.1 - - - - CALM 0 0 0 0 - - 0.0
31/01:00am 4.6 - - - - CALM 0 0 0 0 - - 0.0
31/12:30am 4.9 2.5 4.2 95 0.3 E 6 7 3 4 - - 0.0
31/12:00am 5.2 3.9 4.3 94 0.4 CALM 0 0 0 0 - - 0.0
 
Date/Time
EST
Temp
°C
App
Temp
°C
Dew
Point
Rel
Hum
%
Delta-T
°C
Wind Press
QNH
hPa
Press
MSL
hPa
Rain
since 9 am
mm
Dir
 
Spd
km/h
Gust
km/h
Spd
kts
Gust
kts
30/11:30pm 5.7 3.8 4.8 94 0.4 SSW 4 6 2 3 - - 0.0
30/11:00pm 6.0 4.1 5.0 93 0.4 E 4 6 2 3 - - 0.0
30/10:30pm 6.1 5.1 5.4 95 0.3 CALM 0 0 0 0 - - 0.0

Other Formats:

Comma delimited format used in spreadsheet applications
http://www.bom.gov.au/fwo/IDT60801/IDT60801.94969.axf

JavaScript Object Notation format (JSON) in row-major order
http://www.bom.gov.au/fwo/IDT60801/IDT60801.94969.json